createdAt,value
2018-07-09T00:00:12.866Z,80.40
2018-07-09T00:05:06.216Z,80.60
2018-07-09T00:10:00.030Z,80.70
2018-07-09T00:14:53.284Z,80.90
2018-07-09T00:19:46.652Z,81.20
2018-07-09T00:24:39.897Z,81.40
2018-07-09T00:29:33.173Z,81.60
2018-07-09T00:34:26.549Z,81.80
2018-07-09T00:39:19.814Z,82.70
2018-07-09T00:44:13.109Z,83.00
2018-07-09T00:49:06.320Z,83.60
2018-07-09T00:58:52.691Z,85.00
2018-07-09T01:03:45.949Z,85.40
2018-07-09T01:08:39.192Z,86.00
2018-07-09T01:13:44.378Z,86.00
2018-07-09T01:18:37.618Z,86.30
2018-07-09T01:23:31.130Z,86.70
2018-07-09T01:28:24.485Z,86.90
2018-07-09T01:38:10.966Z,87.60
2018-07-09T01:43:04.231Z,88.70
2018-07-09T01:47:57.413Z,88.30
2018-07-09T01:52:50.629Z,88.50
2018-07-09T01:57:43.839Z,88.70
2018-07-09T02:07:30.225Z,89.10
2018-07-09T02:12:23.479Z,89.30
2018-07-09T02:17:16.731Z,89.50
2018-07-09T02:27:03.334Z,90.00
2018-07-09T02:31:56.610Z,90.20
2018-07-09T02:36:49.835Z,90.30
2018-07-09T02:41:43.087Z,90.50
2018-07-09T02:46:36.322Z,90.40
2018-07-09T02:51:29.566Z,90.70
2018-07-09T02:56:22.789Z,90.70
2018-07-09T03:01:16.136Z,90.70
2018-07-09T03:06:09.232Z,90.90
2018-07-09T03:11:02.811Z,91.00
2018-07-09T03:20:49.234Z,91.40
2018-07-09T03:25:42.479Z,91.50
2018-07-09T03:35:28.988Z,91.60
2018-07-09T03:40:22.229Z,91.70
2018-07-09T03:45:15.468Z,91.60
2018-07-09T03:55:01.876Z,91.60
2018-07-09T03:59:55.131Z,91.50
2018-07-09T04:04:48.372Z,91.50
2018-07-09T04:14:34.740Z,91.50
2018-07-09T04:19:27.955Z,91.50
2018-07-09T04:24:21.152Z,91.50
2018-07-09T04:29:14.358Z,91.70
2018-07-09T04:34:07.956Z,91.70
2018-07-09T04:39:01.401Z,91.50
2018-07-09T04:48:48.289Z,91.30
2018-07-09T04:53:41.477Z,91.30
2018-07-09T04:58:34.722Z,90.50
2018-07-09T05:03:27.952Z,80.60
2018-07-09T05:08:21.184Z,71.40
2018-07-09T05:13:14.438Z,64.00
2018-07-09T05:18:07.667Z,59.70
2018-07-09T05:23:00.889Z,56.60
2018-07-09T05:27:54.112Z,54.30
2018-07-09T05:32:47.371Z,51.60
2018-07-09T05:37:40.616Z,49.70
2018-07-09T05:42:34.349Z,48.00
2018-07-09T05:47:27.665Z,47.90
2018-07-09T06:02:07.307Z,46.00
2018-07-09T06:07:00.553Z,43.80
2018-07-09T06:21:40.046Z,40.50
2018-07-09T06:26:34.296Z,39.60
2018-07-09T06:31:27.611Z,39.20
2018-07-09T06:36:20.970Z,39.20
2018-07-09T06:41:14.263Z,38.90
2018-07-09T06:46:07.620Z,36.40
2018-07-09T06:51:00.982Z,37.30
2018-07-09T06:55:54.228Z,36.60
2018-07-09T07:00:47.468Z,35.30
2018-07-09T07:05:40.851Z,32.90
2018-07-09T07:10:34.167Z,31.90
2018-07-09T07:20:20.690Z,33.00
2018-07-09T07:25:14.012Z,30.90
2018-07-09T07:30:07.321Z,31.60
2018-07-09T07:35:00.565Z,29.80
2018-07-09T07:39:53.802Z,28.80
2018-07-09T07:44:47.114Z,29.20
2018-07-09T07:49:40.308Z,29.80
2018-07-09T07:54:33.576Z,31.20
2018-07-09T07:59:26.816Z,31.60
2018-07-09T08:04:20.101Z,29.60
2018-07-09T08:09:13.482Z,29.90
2018-07-09T08:18:59.886Z,31.70
2018-07-09T08:23:53.149Z,31.30
2018-07-09T08:28:46.416Z,31.10
2018-07-09T08:33:39.724Z,30.90
2018-07-09T08:43:26.232Z,31.90
2018-07-09T08:48:19.536Z,32.80
2018-07-09T08:53:12.807Z,31.80
2018-07-09T08:58:06.185Z,31.10
2018-07-09T09:02:59.425Z,31.80
2018-07-09T09:07:52.665Z,33.40
2018-07-09T09:12:45.932Z,32.50
2018-07-09T09:22:32.405Z,30.80
2018-07-09T09:27:25.723Z,31.70
2018-07-09T09:32:18.992Z,31.30
2018-07-09T09:37:12.273Z,30.60
2018-07-09T09:42:06.094Z,31.20
2018-07-09T09:46:59.376Z,33.00
2018-07-09T09:51:52.606Z,33.30
2018-07-09T09:56:45.869Z,32.90
2018-07-09T10:01:39.127Z,32.50
2018-07-09T10:06:32.442Z,31.90
2018-07-09T10:11:25.729Z,32.60
2018-07-09T10:16:19.083Z,32.60
2018-07-09T10:21:12.444Z,33.50
2018-07-09T10:26:05.825Z,35.60
2018-07-09T10:30:59.024Z,37.60
2018-07-09T10:35:52.287Z,39.50
2018-07-09T10:40:46.068Z,40.50
2018-07-09T10:45:39.312Z,40.50
2018-07-09T10:50:32.883Z,42.50
2018-07-09T10:55:26.242Z,41.80
2018-07-09T11:00:19.533Z,41.00
2018-07-09T11:05:12.788Z,42.00
2018-07-09T11:14:59.215Z,39.70
2018-07-09T11:19:52.475Z,39.90
2018-07-09T11:24:45.728Z,40.70
2018-07-09T11:29:38.985Z,40.60
2018-07-09T11:34:32.239Z,40.60
2018-07-09T11:44:18.656Z,42.20
2018-07-09T11:49:12.200Z,41.80
2018-07-09T11:54:05.652Z,41.50
2018-07-09T12:03:52.627Z,45.70
2018-07-09T12:08:46.065Z,44.50
2018-07-09T12:13:39.357Z,44.40
2018-07-09T12:23:26.075Z,42.80
2018-07-09T12:28:19.343Z,42.00
2018-07-09T12:33:12.558Z,42.10
2018-07-09T12:47:52.329Z,45.50
2018-07-09T12:52:45.547Z,46.10
2018-07-09T12:57:38.824Z,46.40
2018-07-09T13:02:32.150Z,46.20
2018-07-09T13:07:25.993Z,46.10
2018-07-09T13:17:18.103Z,45.80
2018-07-09T13:22:11.436Z,45.00
2018-07-09T13:27:04.701Z,45.50
2018-07-09T13:31:58.537Z,46.70
2018-07-09T13:36:52.531Z,48.40
2018-07-09T13:41:45.879Z,47.70
2018-07-09T13:51:32.422Z,46.70
2018-07-09T13:56:25.645Z,46.80
2018-07-09T14:01:18.919Z,47.30
2018-07-09T14:06:12.289Z,46.30
2018-07-09T14:11:05.536Z,46.80
2018-07-09T14:20:51.957Z,47.50
2018-07-09T14:25:45.210Z,46.60
2018-07-09T14:30:38.585Z,46.20
2018-07-09T14:35:31.848Z,45.90
2018-07-09T14:40:25.307Z,45.00
2018-07-09T14:45:18.819Z,45.30
2018-07-09T14:50:12.185Z,46.00
2018-07-09T14:55:05.665Z,47.00
2018-07-09T14:59:58.924Z,47.30
2018-07-09T15:04:52.491Z,46.30
2018-07-09T15:14:38.993Z,46.90
2018-07-09T15:19:32.209Z,47.50
2018-07-09T15:29:18.749Z,48.50
2018-07-09T15:34:12.453Z,49.40
2018-07-09T15:44:01.792Z,50.80
2018-07-09T15:48:55.035Z,51.40
2018-07-09T16:03:34.697Z,52.40
2018-07-09T16:08:27.952Z,51.40
2018-07-09T16:13:21.272Z,51.50
2018-07-09T16:18:14.607Z,51.40
2018-07-09T16:23:07.913Z,50.90
2018-07-09T16:28:01.161Z,51.80
2018-07-09T16:32:54.414Z,53.00
2018-07-09T16:37:48.425Z,53.30
2018-07-09T16:42:41.709Z,53.70
2018-07-09T16:47:34.968Z,54.10
2018-07-09T16:52:28.213Z,55.50
2018-07-09T17:02:15.631Z,59.00
2018-07-09T17:07:09.560Z,60.30
2018-07-09T17:12:02.807Z,61.30
2018-07-09T17:16:56.059Z,62.20
2018-07-09T17:21:49.350Z,62.90
2018-07-09T17:26:42.918Z,63.90
2018-07-09T17:31:36.081Z,64.20
2018-07-09T17:36:29.339Z,64.40
2018-07-09T17:46:15.812Z,64.20
2018-07-09T17:51:09.055Z,64.70
2018-07-09T18:00:55.476Z,65.00
2018-07-09T18:05:48.746Z,65.40
2018-07-09T18:10:41.978Z,65.60
2018-07-09T18:15:35.283Z,66.60
2018-07-09T18:20:28.492Z,67.20
2018-07-09T18:25:21.777Z,67.50
2018-07-09T18:30:15.035Z,67.70
2018-07-09T18:35:08.355Z,68.30
2018-07-09T18:40:01.577Z,68.20
2018-07-09T18:44:54.833Z,68.50
2018-07-09T18:49:48.074Z,68.70
2018-07-09T18:54:41.301Z,68.90
2018-07-09T18:59:34.531Z,69.70
2018-07-09T19:04:28.420Z,70.80
2018-07-09T19:09:22.516Z,71.70
2018-07-09T19:14:18.504Z,72.60
2018-07-09T19:19:28.891Z,73.90
2018-07-09T19:24:20.453Z,75.90
2018-07-09T19:29:12.038Z,77.80
2018-07-09T19:34:03.667Z,79.10
2018-07-09T19:38:55.210Z,80.10
2018-07-09T19:43:46.803Z,80.70
2018-07-09T19:48:38.382Z,80.90
2018-07-09T19:53:30.004Z,80.00
2018-07-09T19:58:21.570Z,80.40
2018-07-09T20:03:13.139Z,81.10
2018-07-09T20:08:05.468Z,81.40
2018-07-09T20:17:55.209Z,82.70
2018-07-09T20:22:46.800Z,83.30
2018-07-09T20:27:38.387Z,83.90
2018-07-09T20:32:29.967Z,84.40
2018-07-09T20:37:21.856Z,84.80
2018-07-09T20:42:13.446Z,85.20
2018-07-09T20:47:05.030Z,85.40
2018-07-09T20:51:56.619Z,85.80
2018-07-09T20:56:48.177Z,86.10
2018-07-09T21:01:39.745Z,86.20
2018-07-09T21:06:31.323Z,86.40
2018-07-09T21:11:22.962Z,86.00
2018-07-09T21:16:14.578Z,86.00
2018-07-09T21:25:58.426Z,86.80
2018-07-09T21:30:50.007Z,86.90
2018-07-09T21:35:41.611Z,87.50
2018-07-09T21:40:33.169Z,87.60
2018-07-09T21:45:24.734Z,87.50
2018-07-09T21:50:16.309Z,87.80
2018-07-09T21:55:07.909Z,88.50
2018-07-09T22:00:00.468Z,88.80
2018-07-09T22:04:52.051Z,89.00
2018-07-09T22:09:43.689Z,88.90
2018-07-09T22:14:35.264Z,88.90
2018-07-09T22:19:26.910Z,88.60
2018-07-09T22:24:18.581Z,89.00
2018-07-09T22:34:03.859Z,89.00
2018-07-09T22:38:57.079Z,87.80
2018-07-09T22:44:07.440Z,87.30
2018-07-09T22:53:53.783Z,87.20
2018-07-09T23:03:40.174Z,84.70
2018-07-09T23:08:33.465Z,82.90
2018-07-09T23:15:41.575Z,80.90
2018-07-09T23:21:53.950Z,80.40
2018-07-09T23:26:45.517Z,80.10
2018-07-09T23:31:37.153Z,81.20
2018-07-09T23:36:28.736Z,81.80
2018-07-09T23:41:20.313Z,81.90
2018-07-09T23:51:03.967Z,82.90
2018-07-09T23:57:22.345Z,83.10
